AFR24 KLAX-LFPG
Flight info
| Callsign | AFR24 |
|---|---|
| Flight time | N/A |
| Altitude | 33000 |
| Route | ORCKA5 LAS Q70 BLIPP Q842 WINEN DCT KU54O DCT KU72S/N0486F350 DCT KD84U DCT KU06W DCT KP18Y DCT AMENU DCT YYQ DCT YZS DCT 65N080W 66N070W/M084F370 DCT EPMAN DCT 66N050W 6530N04000W 64N030W 6130N02000W DCT ETILO/N0480F370 DCT EVNAL/N0479F390 DCT MAKUX DCT SOSIM L15 KEPAD L151 MID/N0502F290 Y803 SFD UM605 BIBAX |
| Aircraft | B77W/H-SDE1E2E3FGHIJ2J3J4J5M1RWXY/LB1D1 |
Departure
| Time | 2026-04-25 05:18 |
|---|---|
| Airport | Los Angeles International Airport (KLAX) |
Arrival
| Time | N/A |
|---|---|
| Airport | Charles de Gaulle International Airport (LFPG) |
| Time | Latitude | Longitude | Altitude | Speed | Heading |
|---|---|---|---|---|---|
| 2026-04-25 04:38 | 33.94351 | -118.41584 | 128 ft | 0 kts | 83° |
| 2026-04-25 04:42 | 33.94351 | -118.41585 | 128 ft | 0 kts | 83° |
| 2026-04-25 04:57 | 33.94349 | -118.41602 | 128 ft | 2 kts | 72° |
| 2026-04-25 04:57 | 33.94343 | -118.41618 | 127 ft | 2 kts | 59° |
| 2026-04-25 04:57 | 33.94334 | -118.41634 | 127 ft | 2 kts | 49° |
| 2026-04-25 04:58 | 33.94323 | -118.41646 | 127 ft | 2 kts | 37° |
| 2026-04-25 04:58 | 33.94310 | -118.41656 | 127 ft | 2 kts | 26° |
| 2026-04-25 04:58 | 33.94297 | -118.41663 | 127 ft | 2 kts | 15° |
| 2026-04-25 04:58 | 33.94282 | -118.41666 | 127 ft | 2 kts | 5° |
| 2026-04-25 04:59 | 33.94268 | -118.41666 | 127 ft | 2 kts | 354° |
| 2026-04-25 04:59 | 33.94253 | -118.41663 | 127 ft | 2 kts | 351° |
| 2026-04-25 04:59 | 33.94249 | -118.41663 | 127 ft | 0 kts | 351° |
| 2026-04-25 05:04 | 33.94260 | -118.41664 | 127 ft | 3 kts | 352° |
| 2026-04-25 05:04 | 33.94294 | -118.41670 | 127 ft | 6 kts | 352° |
| 2026-04-25 05:04 | 33.94347 | -118.41685 | 127 ft | 8 kts | 329° |
| 2026-04-25 05:04 | 33.94354 | -118.41692 | 127 ft | 0 kts | 319° |
| 2026-04-25 05:05 | 33.94355 | -118.41692 | 127 ft | 0 kts | 318° |
| 2026-04-25 05:05 | 33.94363 | -118.41703 | 127 ft | 3 kts | 306° |
| 2026-04-25 05:05 | 33.94362 | -118.41750 | 127 ft | 7 kts | 231° |
| 2026-04-25 05:05 | 33.94294 | -118.41767 | 126 ft | 12 kts | 178° |
| 2026-04-25 05:06 | 33.94199 | -118.41755 | 127 ft | 9 kts | 172° |
| 2026-04-25 05:06 | 33.94139 | -118.41745 | 127 ft | 7 kts | 173° |
| 2026-04-25 05:06 | 33.94089 | -118.41737 | 127 ft | 6 kts | 173° |
| 2026-04-25 05:06 | 33.94047 | -118.41731 | 127 ft | 5 kts | 173° |
| 2026-04-25 05:07 | 33.94012 | -118.41725 | 127 ft | 4 kts | 173° |
| 2026-04-25 05:07 | 33.93983 | -118.41721 | 127 ft | 3 kts | 173° |
| 2026-04-25 05:07 | 33.93957 | -118.41718 | 128 ft | 3 kts | 173° |
| 2026-04-25 05:07 | 33.93933 | -118.41714 | 128 ft | 3 kts | 173° |
| 2026-04-25 05:08 | 33.93899 | -118.41708 | 128 ft | 6 kts | 173° |
| 2026-04-25 05:08 | 33.93849 | -118.41702 | 128 ft | 8 kts | 173° |
| 2026-04-25 05:08 | 33.93780 | -118.41692 | 128 ft | 10 kts | 173° |
| 2026-04-25 05:08 | 33.93721 | -118.41642 | 129 ft | 11 kts | 106° |
| 2026-04-25 05:09 | 33.93721 | -118.41538 | 131 ft | 12 kts | 82° |
| 2026-04-25 05:09 | 33.93733 | -118.41426 | 132 ft | 14 kts | 84° |
| 2026-04-25 05:09 | 33.93746 | -118.41296 | 133 ft | 17 kts | 83° |
| 2026-04-25 05:09 | 33.93760 | -118.41142 | 133 ft | 19 kts | 84° |
| 2026-04-25 05:10 | 33.93776 | -118.41013 | 134 ft | 13 kts | 82° |
| 2026-04-25 05:10 | 33.93786 | -118.40913 | 134 ft | 11 kts | 83° |
| 2026-04-25 05:10 | 33.93795 | -118.40823 | 133 ft | 10 kts | 83° |
| 2026-04-25 05:10 | 33.93803 | -118.40742 | 133 ft | 9 kts | 83° |
| 2026-04-25 05:11 | 33.93811 | -118.40664 | 132 ft | 9 kts | 83° |
| 2026-04-25 05:11 | 33.93820 | -118.40578 | 132 ft | 10 kts | 83° |
| 2026-04-25 05:11 | 33.93829 | -118.40488 | 131 ft | 11 kts | 83° |
| 2026-04-25 05:12 | 33.93850 | -118.40280 | 128 ft | 13 kts | 83° |
| 2026-04-25 05:12 | 33.93862 | -118.40166 | 127 ft | 14 kts | 83° |
| 2026-04-25 05:12 | 33.93874 | -118.40041 | 125 ft | 15 kts | 83° |
| 2026-04-25 05:12 | 33.93887 | -118.39911 | 123 ft | 16 kts | 83° |
| 2026-04-25 05:13 | 33.93902 | -118.39774 | 121 ft | 16 kts | 83° |
| 2026-04-25 05:13 | 33.93916 | -118.39635 | 120 ft | 17 kts | 83° |
| 2026-04-25 05:13 | 33.93930 | -118.39489 | 118 ft | 17 kts | 82° |
| 2026-04-25 05:13 | 33.93946 | -118.39340 | 116 ft | 17 kts | 83° |
| 2026-04-25 05:14 | 33.93961 | -118.39193 | 115 ft | 17 kts | 83° |
| 2026-04-25 05:14 | 33.93976 | -118.39046 | 114 ft | 17 kts | 83° |
| 2026-04-25 05:14 | 33.93991 | -118.38900 | 113 ft | 17 kts | 83° |
| 2026-04-25 05:15 | 33.94021 | -118.38615 | 111 ft | 16 kts | 83° |
| 2026-04-25 05:15 | 33.94035 | -118.38476 | 111 ft | 16 kts | 83° |
| 2026-04-25 05:15 | 33.94049 | -118.38338 | 110 ft | 16 kts | 83° |
| 2026-04-25 05:15 | 33.94063 | -118.38203 | 110 ft | 16 kts | 83° |
| 2026-04-25 05:16 | 33.94075 | -118.38093 | 109 ft | 9 kts | 84° |
| 2026-04-25 05:16 | 33.94074 | -118.38049 | 109 ft | 0 kts | 101° |
| 2026-04-25 05:16 | 33.94074 | -118.38047 | 109 ft | 1 kts | 101° |
| 2026-04-25 05:17 | 33.94059 | -118.38017 | 109 ft | 6 kts | 158° |
| 2026-04-25 05:17 | 33.93992 | -118.38013 | 109 ft | 9 kts | 218° |
| 2026-04-25 05:17 | 33.93982 | -118.38054 | 109 ft | 4 kts | 265° |
| 2026-04-25 05:17 | 33.93950 | -118.38362 | 110 ft | 74 kts | 263° |
| 2026-04-25 05:18 | 33.93857 | -118.39274 | 116 ft | 143 kts | 263° |
| 2026-04-25 05:18 | 33.93717 | -118.40685 | 293 ft | 187 kts | 263° |
| 2026-04-25 05:18 | 33.93563 | -118.42280 | 989 ft | 196 kts | 263° |
| 2026-04-25 05:18 | 33.93433 | -118.43886 | 1727 ft | 197 kts | 261° |
| 2026-04-25 05:19 | 33.93181 | -118.45544 | 2123 ft | 210 kts | 249° |
| 2026-04-25 05:19 | 33.92412 | -118.47104 | 2460 ft | 227 kts | 231° |
| 2026-04-25 05:19 | 33.91369 | -118.48634 | 2931 ft | 243 kts | 232° |
| 2026-04-25 05:19 | 33.90267 | -118.50246 | 3492 ft | 255 kts | 231° |
| 2026-04-25 05:20 | 33.89106 | -118.51879 | 4231 ft | 259 kts | 231° |
| 2026-04-25 05:20 | 33.87944 | -118.53527 | 4815 ft | 265 kts | 231° |
| 2026-04-25 05:20 | 33.86617 | -118.55058 | 4925 ft | 266 kts | 213° |
| 2026-04-25 05:20 | 33.84884 | -118.55805 | 4937 ft | 269 kts | 187° |
| 2026-04-25 05:21 | 33.82988 | -118.55650 | 4956 ft | 272 kts | 171° |
| 2026-04-25 05:21 | 33.81134 | -118.55179 | 4953 ft | 272 kts | 169° |
| 2026-04-25 05:21 | 33.79234 | -118.54657 | 5386 ft | 283 kts | 169° |
| 2026-04-25 05:21 | 33.77361 | -118.54145 | 6334 ft | 278 kts | 169° |
| 2026-04-25 05:22 | 33.75480 | -118.53636 | 7044 ft | 281 kts | 170° |
| 2026-04-25 05:22 | 33.73554 | -118.53117 | 7747 ft | 284 kts | 169° |
| 2026-04-25 05:22 | 33.71650 | -118.52483 | 8462 ft | 288 kts | 158° |
| 2026-04-25 05:22 | 33.69973 | -118.51150 | 8883 ft | 296 kts | 136° |
| 2026-04-25 05:23 | 33.68794 | -118.49150 | 8934 ft | 298 kts | 114° |
| 2026-04-25 05:23 | 33.68087 | -118.46818 | 8954 ft | 299 kts | 109° |
| 2026-04-25 05:23 | 33.67422 | -118.44414 | 9156 ft | 309 kts | 110° |
| 2026-04-25 05:23 | 33.66727 | -118.41990 | 10052 ft | 304 kts | 111° |
| 2026-04-25 05:24 | 33.66030 | -118.39613 | 10675 ft | 308 kts | 111° |
| 2026-04-25 05:24 | 33.65305 | -118.37163 | 11207 ft | 315 kts | 111° |
| 2026-04-25 05:24 | 33.64701 | -118.34605 | 11806 ft | 321 kts | 102° |
| 2026-04-25 05:24 | 33.64432 | -118.31940 | 12374 ft | 327 kts | 92° |
| 2026-04-25 05:25 | 33.64425 | -118.29201 | 12947 ft | 332 kts | 90° |
| 2026-04-25 05:25 | 33.64447 | -118.26413 | 13465 ft | 338 kts | 89° |